sensor_id;sensor_type;location;lat;lon;timestamp;P1;durP1;ratioP1;P2;durP2;ratioP2
69703;SDS011;56967;43.538;-5.646;2022-07-29T00:00:41;6.70;;;2.60;;
69703;SDS011;56967;43.538;-5.646;2022-07-29T00:03:09;5.13;;;2.90;;
69703;SDS011;56967;43.538;-5.646;2022-07-29T00:05:37;4.88;;;2.58;;
69703;SDS011;56967;43.538;-5.646;2022-07-29T00:08:03;6.50;;;2.70;;
69703;SDS011;56967;43.538;-5.646;2022-07-29T00:10:29;6.10;;;2.63;;
69703;SDS011;56967;43.538;-5.646;2022-07-29T00:12:54;7.18;;;2.88;;
69703;SDS011;56967;43.538;-5.646;2022-07-29T00:15:20;6.97;;;2.90;;
69703;SDS011;56967;43.538;-5.646;2022-07-29T00:17:45;7.25;;;2.90;;
69703;SDS011;56967;43.538;-5.646;2022-07-29T00:20:11;6.40;;;2.75;;
69703;SDS011;56967;43.538;-5.646;2022-07-29T00:22:37;3.75;;;2.30;;
69703;SDS011;56967;43.538;-5.646;2022-07-29T00:25:03;7.25;;;2.63;;
69703;SDS011;56967;43.538;-5.646;2022-07-29T00:27:29;6.70;;;2.28;;
69703;SDS011;56967;43.538;-5.646;2022-07-29T00:29:55;5.28;;;2.30;;
69703;SDS011;56967;43.538;-5.646;2022-07-29T00:32:20;7.22;;;3.45;;
69703;SDS011;56967;43.538;-5.646;2022-07-29T00:34:46;6.05;;;2.85;;
69703;SDS011;56967;43.538;-5.646;2022-07-29T00:37:29;4.47;;;2.05;;
69703;SDS011;56967;43.538;-5.646;2022-07-29T00:39:55;5.93;;;2.00;;
69703;SDS011;56967;43.538;-5.646;2022-07-29T00:42:20;9.75;;;2.88;;
69703;SDS011;56967;43.538;-5.646;2022-07-29T00:44:46;7.05;;;2.88;;
69703;SDS011;56967;43.538;-5.646;2022-07-29T00:47:12;3.42;;;1.90;;
69703;SDS011;56967;43.538;-5.646;2022-07-29T00:49:39;4.22;;;2.10;;
69703;SDS011;56967;43.538;-5.646;2022-07-29T00:52:05;4.70;;;2.13;;
69703;SDS011;56967;43.538;-5.646;2022-07-29T00:54:32;7.22;;;2.10;;
69703;SDS011;56967;43.538;-5.646;2022-07-29T00:56:58;5.95;;;2.42;;
69703;SDS011;56967;43.538;-5.646;2022-07-29T00:59:24;7.15;;;3.00;;
69703;SDS011;56967;43.538;-5.646;2022-07-29T01:01:52;8.63;;;4.10;;
69703;SDS011;56967;43.538;-5.646;2022-07-29T01:04:18;7.53;;;4.80;;
69703;SDS011;56967;43.538;-5.646;2022-07-29T01:06:43;8.60;;;4.13;;
69703;SDS011;56967;43.538;-5.646;2022-07-29T01:09:09;8.18;;;5.13;;
69703;SDS011;56967;43.538;-5.646;2022-07-29T01:11:36;7.07;;;4.28;;
69703;SDS011;56967;43.538;-5.646;2022-07-29T01:14:02;6.35;;;3.95;;
69703;SDS011;56967;43.538;-5.646;2022-07-29T01:16:30;9.57;;;5.28;;
69703;SDS011;56967;43.538;-5.646;2022-07-29T01:19:03;9.10;;;4.90;;
69703;SDS011;56967;43.538;-5.646;2022-07-29T01:29:49;9.13;;;3.83;;
69703;SDS011;56967;43.538;-5.646;2022-07-29T01:32:22;7.25;;;3.63;;
69703;SDS011;56967;43.538;-5.646;2022-07-29T01:37:28;5.80;;;3.45;;
69703;SDS011;56967;43.538;-5.646;2022-07-29T01:40:04;7.95;;;4.10;;
69703;SDS011;56967;43.538;-5.646;2022-07-29T01:42:38;7.45;;;3.33;;
69703;SDS011;56967;43.538;-5.646;2022-07-29T01:45:50;8.15;;;3.50;;
69703;SDS011;56967;43.538;-5.646;2022-07-29T01:47:58;7.38;;;3.90;;
69703;SDS011;56967;43.538;-5.646;2022-07-29T01:50:31;11.32;;;3.67;;
69703;SDS011;56967;43.538;-5.646;2022-07-29T01:53:00;6.63;;;3.58;;
69703;SDS011;56967;43.538;-5.646;2022-07-29T01:55:31;6.40;;;3.00;;
69703;SDS011;56967;43.538;-5.646;2022-07-29T01:57:59;7.47;;;2.90;;
69703;SDS011;56967;43.538;-5.646;2022-07-29T02:00:26;5.95;;;2.92;;
69703;SDS011;56967;43.538;-5.646;2022-07-29T02:02:52;9.60;;;3.25;;
69703;SDS011;56967;43.538;-5.646;2022-07-29T02:05:20;7.30;;;3.03;;
69703;SDS011;56967;43.538;-5.646;2022-07-29T02:07:48;5.05;;;2.60;;
69703;SDS011;56967;43.538;-5.646;2022-07-29T02:10:15;6.80;;;2.72;;
69703;SDS011;56967;43.538;-5.646;2022-07-29T02:12:46;7.85;;;3.30;;
69703;SDS011;56967;43.538;-5.646;2022-07-29T02:15:13;5.80;;;2.47;;
69703;SDS011;56967;43.538;-5.646;2022-07-29T02:17:48;5.43;;;2.67;;
69703;SDS011;56967;43.538;-5.646;2022-07-29T02:20:16;7.45;;;3.00;;
69703;SDS011;56967;43.538;-5.646;2022-07-29T02:22:42;5.05;;;2.70;;
69703;SDS011;56967;43.538;-5.646;2022-07-29T02:25:09;4.32;;;2.45;;
69703;SDS011;56967;43.538;-5.646;2022-07-29T02:27:35;5.05;;;2.38;;
69703;SDS011;56967;43.538;-5.646;2022-07-29T02:30:04;7.28;;;2.72;;
69703;SDS011;56967;43.538;-5.646;2022-07-29T02:32:31;5.43;;;2.53;;
69703;SDS011;56967;43.538;-5.646;2022-07-29T02:34:59;10.57;;;3.10;;
69703;SDS011;56967;43.538;-5.646;2022-07-29T02:37:26;5.13;;;2.83;;
69703;SDS011;56967;43.538;-5.646;2022-07-29T02:39:54;7.38;;;3.17;;
69703;SDS011;56967;43.538;-5.646;2022-07-29T02:42:20;5.47;;;3.03;;
69703;SDS011;56967;43.538;-5.646;2022-07-29T02:44:48;5.30;;;3.00;;
69703;SDS011;56967;43.538;-5.646;2022-07-29T02:52:52;5.28;;;2.65;;
69703;SDS011;56967;43.538;-5.646;2022-07-29T02:55:26;6.90;;;2.97;;
69703;SDS011;56967;43.538;-5.646;2022-07-29T03:00:47;5.35;;;2.92;;
69703;SDS011;56967;43.538;-5.646;2022-07-29T03:03:17;6.45;;;2.80;;
69703;SDS011;56967;43.538;-5.646;2022-07-29T03:05:44;5.43;;;2.60;;
69703;SDS011;56967;43.538;-5.646;2022-07-29T03:08:10;6.85;;;2.88;;
69703;SDS011;56967;43.538;-5.646;2022-07-29T03:10:37;5.00;;;2.75;;
69703;SDS011;56967;43.538;-5.646;2022-07-29T03:13:05;5.40;;;2.78;;
69703;SDS011;56967;43.538;-5.646;2022-07-29T03:15:32;5.45;;;2.90;;
69703;SDS011;56967;43.538;-5.646;2022-07-29T03:17:59;5.97;;;3.20;;
69703;SDS011;56967;43.538;-5.646;2022-07-29T03:20:25;7.18;;;3.05;;
69703;SDS011;56967;43.538;-5.646;2022-07-29T03:22:52;5.47;;;2.63;;
69703;SDS011;56967;43.538;-5.646;2022-07-29T03:25:18;7.07;;;2.83;;
69703;SDS011;56967;43.538;-5.646;2022-07-29T03:27:45;8.55;;;3.22;;
69703;SDS011;56967;43.538;-5.646;2022-07-29T03:30:12;6.53;;;2.88;;
69703;SDS011;56967;43.538;-5.646;2022-07-29T03:32:38;6.63;;;3.17;;
69703;SDS011;56967;43.538;-5.646;2022-07-29T03:35:04;4.55;;;2.60;;
69703;SDS011;56967;43.538;-5.646;2022-07-29T03:37:30;7.60;;;2.88;;
69703;SDS011;56967;43.538;-5.646;2022-07-29T03:39:58;6.22;;;3.08;;
69703;SDS011;56967;43.538;-5.646;2022-07-29T03:42:30;5.10;;;2.70;;
69703;SDS011;56967;43.538;-5.646;2022-07-29T03:45:02;8.07;;;2.90;;
69703;SDS011;56967;43.538;-5.646;2022-07-29T03:47:31;5.20;;;2.92;;
69703;SDS011;56967;43.538;-5.646;2022-07-29T03:50:00;5.35;;;2.70;;
69703;SDS011;56967;43.538;-5.646;2022-07-29T03:52:30;6.75;;;2.90;;
69703;SDS011;56967;43.538;-5.646;2022-07-29T03:54:55;7.20;;;3.10;;
69703;SDS011;56967;43.538;-5.646;2022-07-29T03:57:23;4.20;;;2.97;;
69703;SDS011;56967;43.538;-5.646;2022-07-29T03:59:52;6.57;;;3.05;;
69703;SDS011;56967;43.538;-5.646;2022-07-29T04:02:18;4.53;;;3.00;;
69703;SDS011;56967;43.538;-5.646;2022-07-29T04:04:44;4.75;;;2.97;;
69703;SDS011;56967;43.538;-5.646;2022-07-29T04:07:14;8.27;;;2.90;;
69703;SDS011;56967;43.538;-5.646;2022-07-29T04:09:40;4.75;;;3.10;;
69703;SDS011;56967;43.538;-5.646;2022-07-29T04:12:06;4.55;;;2.88;;
69703;SDS011;56967;43.538;-5.646;2022-07-29T04:14:32;5.13;;;3.10;;
69703;SDS011;56967;43.538;-5.646;2022-07-29T04:16:59;5.13;;;3.15;;
69703;SDS011;56967;43.538;-5.646;2022-07-29T04:19:25;4.45;;;3.08;;
69703;SDS011;56967;43.538;-5.646;2022-07-29T04:21:51;4.20;;;2.80;;
69703;SDS011;56967;43.538;-5.646;2022-07-29T04:24:16;7.55;;;3.25;;
69703;SDS011;56967;43.538;-5.646;2022-07-29T04:26:43;6.50;;;3.15;;
69703;SDS011;56967;43.538;-5.646;2022-07-29T04:29:10;4.07;;;2.95;;
69703;SDS011;56967;43.538;-5.646;2022-07-29T04:31:37;4.82;;;3.10;;
69703;SDS011;56967;43.538;-5.646;2022-07-29T04:34:02;4.18;;;3.00;;
69703;SDS011;56967;43.538;-5.646;2022-07-29T04:36:28;4.18;;;2.80;;
69703;SDS011;56967;43.538;-5.646;2022-07-29T04:38:53;3.78;;;2.58;;
69703;SDS011;56967;43.538;-5.646;2022-07-29T04:41:19;3.72;;;2.53;;
69703;SDS011;56967;43.538;-5.646;2022-07-29T04:43:44;5.88;;;2.80;;
69703;SDS011;56967;43.538;-5.646;2022-07-29T04:46:09;4.20;;;2.72;;
69703;SDS011;56967;43.538;-5.646;2022-07-29T04:48:35;3.42;;;2.75;;
69703;SDS011;56967;43.538;-5.646;2022-07-29T04:51:00;6.00;;;2.50;;
69703;SDS011;56967;43.538;-5.646;2022-07-29T04:53:26;3.28;;;2.60;;
69703;SDS011;56967;43.538;-5.646;2022-07-29T04:55:51;6.53;;;2.63;;
69703;SDS011;56967;43.538;-5.646;2022-07-29T04:58:17;4.40;;;2.75;;
69703;SDS011;56967;43.538;-5.646;2022-07-29T05:00:43;4.55;;;2.60;;
69703;SDS011;56967;43.538;-5.646;2022-07-29T05:03:08;4.32;;;2.47;;
69703;SDS011;56967;43.538;-5.646;2022-07-29T05:05:34;3.75;;;2.63;;
69703;SDS011;56967;43.538;-5.646;2022-07-29T05:07:59;3.22;;;2.22;;
69703;SDS011;56967;43.538;-5.646;2022-07-29T05:10:25;3.80;;;2.40;;
69703;SDS011;56967;43.538;-5.646;2022-07-29T05:12:51;3.88;;;2.65;;
69703;SDS011;56967;43.538;-5.646;2022-07-29T05:15:16;2.60;;;2.30;;
69703;SDS011;56967;43.538;-5.646;2022-07-29T05:17:42;6.38;;;2.90;;
69703;SDS011;56967;43.538;-5.646;2022-07-29T05:20:08;4.40;;;2.63;;
69703;SDS011;56967;43.538;-5.646;2022-07-29T05:22:34;6.38;;;3.00;;
69703;SDS011;56967;43.538;-5.646;2022-07-29T05:25:00;4.72;;;2.45;;
69703;SDS011;56967;43.538;-5.646;2022-07-29T05:27:26;5.97;;;3.05;;
69703;SDS011;56967;43.538;-5.646;2022-07-29T05:29:51;5.50;;;3.10;;
69703;SDS011;56967;43.538;-5.646;2022-07-29T05:32:17;8.90;;;3.22;;
69703;SDS011;56967;43.538;-5.646;2022-07-29T05:34:42;5.68;;;2.67;;
69703;SDS011;56967;43.538;-5.646;2022-07-29T05:37:08;7.72;;;3.10;;
69703;SDS011;56967;43.538;-5.646;2022-07-29T05:39:33;5.25;;;2.55;;
69703;SDS011;56967;43.538;-5.646;2022-07-29T05:41:59;6.20;;;2.40;;
69703;SDS011;56967;43.538;-5.646;2022-07-29T05:44:24;2.78;;;2.28;;
69703;SDS011;56967;43.538;-5.646;2022-07-29T05:46:50;3.75;;;2.47;;
69703;SDS011;56967;43.538;-5.646;2022-07-29T05:49:15;4.75;;;2.55;;
69703;SDS011;56967;43.538;-5.646;2022-07-29T05:51:41;3.72;;;2.17;;
69703;SDS011;56967;43.538;-5.646;2022-07-29T05:54:06;6.00;;;2.50;;
69703;SDS011;56967;43.538;-5.646;2022-07-29T05:56:35;6.22;;;2.30;;
69703;SDS011;56967;43.538;-5.646;2022-07-29T05:59:01;4.95;;;2.30;;
69703;SDS011;56967;43.538;-5.646;2022-07-29T06:01:26;5.03;;;2.30;;
69703;SDS011;56967;43.538;-5.646;2022-07-29T06:03:52;5.20;;;2.33;;
69703;SDS011;56967;43.538;-5.646;2022-07-29T06:06:17;4.72;;;2.20;;
69703;SDS011;56967;43.538;-5.646;2022-07-29T06:08:43;4.82;;;2.22;;
69703;SDS011;56967;43.538;-5.646;2022-07-29T06:11:08;5.28;;;2.35;;
69703;SDS011;56967;43.538;-5.646;2022-07-29T06:13:34;5.85;;;2.10;;
69703;SDS011;56967;43.538;-5.646;2022-07-29T06:15:59;4.03;;;2.15;;
69703;SDS011;56967;43.538;-5.646;2022-07-29T06:18:25;5.53;;;2.20;;
69703;SDS011;56967;43.538;-5.646;2022-07-29T06:20:51;4.50;;;2.30;;
69703;SDS011;56967;43.538;-5.646;2022-07-29T06:23:17;4.65;;;2.33;;
69703;SDS011;56967;43.538;-5.646;2022-07-29T06:25:43;4.25;;;2.47;;
69703;SDS011;56967;43.538;-5.646;2022-07-29T06:28:08;4.40;;;2.10;;
69703;SDS011;56967;43.538;-5.646;2022-07-29T06:30:34;5.75;;;1.92;;
69703;SDS011;56967;43.538;-5.646;2022-07-29T06:32:59;7.05;;;2.53;;
69703;SDS011;56967;43.538;-5.646;2022-07-29T06:35:26;2.75;;;2.30;;
69703;SDS011;56967;43.538;-5.646;2022-07-29T06:37:52;4.43;;;2.30;;
69703;SDS011;56967;43.538;-5.646;2022-07-29T06:40:17;5.93;;;2.60;;
69703;SDS011;56967;43.538;-5.646;2022-07-29T06:43:02;8.43;;;2.90;;
69703;SDS011;56967;43.538;-5.646;2022-07-29T06:45:27;5.78;;;2.40;;
69703;SDS011;56967;43.538;-5.646;2022-07-29T06:47:53;7.82;;;2.67;;
69703;SDS011;56967;43.538;-5.646;2022-07-29T06:50:18;5.95;;;2.60;;
69703;SDS011;56967;43.538;-5.646;2022-07-29T06:52:44;6.75;;;2.70;;
69703;SDS011;56967;43.538;-5.646;2022-07-29T06:55:09;7.32;;;2.90;;
69703;SDS011;56967;43.538;-5.646;2022-07-29T06:57:35;7.65;;;2.88;;
69703;SDS011;56967;43.538;-5.646;2022-07-29T07:00:01;7.25;;;2.90;;
69703;SDS011;56967;43.538;-5.646;2022-07-29T07:02:29;7.93;;;2.72;;
69703;SDS011;56967;43.538;-5.646;2022-07-29T07:04:54;9.18;;;3.25;;
69703;SDS011;56967;43.538;-5.646;2022-07-29T07:07:20;6.88;;;2.67;;
69703;SDS011;56967;43.538;-5.646;2022-07-29T07:09:45;6.63;;;2.33;;
69703;SDS011;56967;43.538;-5.646;2022-07-29T07:12:11;3.67;;;2.00;;
69703;SDS011;56967;43.538;-5.646;2022-07-29T07:14:36;4.43;;;2.13;;
69703;SDS011;56967;43.538;-5.646;2022-07-29T07:17:02;7.63;;;2.80;;
69703;SDS011;56967;43.538;-5.646;2022-07-29T07:19:28;5.75;;;3.30;;
69703;SDS011;56967;43.538;-5.646;2022-07-29T07:21:54;7.80;;;3.10;;
69703;SDS011;56967;43.538;-5.646;2022-07-29T07:24:20;10.73;;;3.70;;
69703;SDS011;56967;43.538;-5.646;2022-07-29T07:26:45;8.38;;;3.63;;
69703;SDS011;56967;43.538;-5.646;2022-07-29T07:29:11;10.00;;;3.75;;
69703;SDS011;56967;43.538;-5.646;2022-07-29T07:31:37;9.77;;;3.60;;
69703;SDS011;56967;43.538;-5.646;2022-07-29T07:34:03;7.88;;;3.08;;
69703;SDS011;56967;43.538;-5.646;2022-07-29T07:36:28;3.78;;;2.20;;
69703;SDS011;56967;43.538;-5.646;2022-07-29T07:38:54;6.53;;;1.92;;
69703;SDS011;56967;43.538;-5.646;2022-07-29T07:41:20;5.88;;;2.00;;
69703;SDS011;56967;43.538;-5.646;2022-07-29T07:43:45;7.30;;;2.40;;
69703;SDS011;56967;43.538;-5.646;2022-07-29T07:46:11;7.93;;;2.38;;
69703;SDS011;56967;43.538;-5.646;2022-07-29T07:48:37;4.20;;;2.00;;
69703;SDS011;56967;43.538;-5.646;2022-07-29T07:51:02;3.80;;;1.83;;
69703;SDS011;56967;43.538;-5.646;2022-07-29T07:53:28;4.78;;;2.15;;
69703;SDS011;56967;43.538;-5.646;2022-07-29T07:55:54;7.05;;;2.35;;
69703;SDS011;56967;43.538;-5.646;2022-07-29T07:58:20;7.18;;;2.42;;
69703;SDS011;56967;43.538;-5.646;2022-07-29T08:00:46;10.02;;;2.95;;
69703;SDS011;56967;43.538;-5.646;2022-07-29T08:03:12;12.80;;;2.85;;
69703;SDS011;56967;43.538;-5.646;2022-07-29T08:05:38;9.85;;;2.35;;
69703;SDS011;56967;43.538;-5.646;2022-07-29T08:08:04;11.50;;;2.65;;
69703;SDS011;56967;43.538;-5.646;2022-07-29T08:10:30;17.70;;;3.15;;
69703;SDS011;56967;43.538;-5.646;2022-07-29T08:13:14;9.88;;;2.10;;
69703;SDS011;56967;43.538;-5.646;2022-07-29T08:15:40;9.13;;;2.50;;
69703;SDS011;56967;43.538;-5.646;2022-07-29T08:18:10;11.02;;;2.42;;
69703;SDS011;56967;43.538;-5.646;2022-07-29T08:20:36;9.63;;;2.40;;
69703;SDS011;56967;43.538;-5.646;2022-07-29T08:23:04;11.57;;;3.05;;
69703;SDS011;56967;43.538;-5.646;2022-07-29T08:25:31;8.77;;;2.25;;
69703;SDS011;56967;43.538;-5.646;2022-07-29T08:27:58;7.65;;;2.50;;
69703;SDS011;56967;43.538;-5.646;2022-07-29T08:30:23;9.40;;;2.50;;
69703;SDS011;56967;43.538;-5.646;2022-07-29T08:32:49;8.52;;;2.40;;
69703;SDS011;56967;43.538;-5.646;2022-07-29T08:35:17;5.40;;;2.38;;
69703;SDS011;56967;43.538;-5.646;2022-07-29T08:37:44;9.90;;;2.33;;
69703;SDS011;56967;43.538;-5.646;2022-07-29T08:40:09;8.75;;;2.47;;
69703;SDS011;56967;43.538;-5.646;2022-07-29T08:42:35;9.10;;;2.45;;
69703;SDS011;56967;43.538;-5.646;2022-07-29T08:45:01;6.72;;;2.17;;
69703;SDS011;56967;43.538;-5.646;2022-07-29T08:47:27;4.63;;;2.25;;
69703;SDS011;56967;43.538;-5.646;2022-07-29T08:49:53;5.07;;;1.88;;
69703;SDS011;56967;43.538;-5.646;2022-07-29T08:52:18;3.50;;;1.70;;
69703;SDS011;56967;43.538;-5.646;2022-07-29T08:54:45;4.75;;;1.75;;
69703;SDS011;56967;43.538;-5.646;2022-07-29T08:57:14;8.07;;;2.45;;
69703;SDS011;56967;43.538;-5.646;2022-07-29T08:59:42;7.35;;;2.00;;
69703;SDS011;56967;43.538;-5.646;2022-07-29T09:02:12;4.13;;;2.17;;
69703;SDS011;56967;43.538;-5.646;2022-07-29T09:04:44;3.90;;;1.92;;
69703;SDS011;56967;43.538;-5.646;2022-07-29T09:07:10;3.30;;;1.65;;
69703;SDS011;56967;43.538;-5.646;2022-07-29T09:09:39;4.07;;;1.80;;
69703;SDS011;56967;43.538;-5.646;2022-07-29T09:12:05;4.82;;;2.03;;
69703;SDS011;56967;43.538;-5.646;2022-07-29T09:14:33;5.25;;;2.20;;
69703;SDS011;56967;43.538;-5.646;2022-07-29T09:16:59;4.18;;;1.83;;
69703;SDS011;56967;43.538;-5.646;2022-07-29T09:19:32;4.97;;;2.03;;
69703;SDS011;56967;43.538;-5.646;2022-07-29T09:22:04;6.20;;;2.15;;
69703;SDS011;56967;43.538;-5.646;2022-07-29T09:24:44;3.13;;;1.80;;
69703;SDS011;56967;43.538;-5.646;2022-07-29T09:29:57;4.43;;;2.03;;
69703;SDS011;56967;43.538;-5.646;2022-07-29T09:32:55;4.00;;;1.80;;
69703;SDS011;56967;43.538;-5.646;2022-07-29T09:35:27;5.10;;;2.10;;
69703;SDS011;56967;43.538;-5.646;2022-07-29T09:37:54;4.88;;;2.50;;
69703;SDS011;56967;43.538;-5.646;2022-07-29T09:42:46;4.45;;;2.35;;
69703;SDS011;56967;43.538;-5.646;2022-07-29T09:45:27;4.00;;;2.60;;
69703;SDS011;56967;43.538;-5.646;2022-07-29T09:47:53;4.65;;;3.40;;
69703;SDS011;56967;43.538;-5.646;2022-07-29T09:50:19;4.32;;;2.13;;
69703;SDS011;56967;43.538;-5.646;2022-07-29T09:52:52;5.03;;;2.65;;
69703;SDS011;56967;43.538;-5.646;2022-07-29T09:55:18;4.18;;;2.05;;
69703;SDS011;56967;43.538;-5.646;2022-07-29T09:57:45;6.00;;;2.60;;
69703;SDS011;56967;43.538;-5.646;2022-07-29T10:00:18;3.90;;;2.33;;
69703;SDS011;56967;43.538;-5.646;2022-07-29T10:02:47;3.70;;;2.10;;
69703;SDS011;56967;43.538;-5.646;2022-07-29T10:05:23;4.18;;;1.80;;
69703;SDS011;56967;43.538;-5.646;2022-07-29T10:10:20;5.25;;;2.10;;
69703;SDS011;56967;43.538;-5.646;2022-07-29T10:12:57;4.18;;;1.98;;
69703;SDS011;56967;43.538;-5.646;2022-07-29T10:15:24;3.05;;;1.98;;
69703;SDS011;56967;43.538;-5.646;2022-07-29T10:17:52;5.13;;;2.00;;
69703;SDS011;56967;43.538;-5.646;2022-07-29T10:20:19;3.72;;;2.08;;
69703;SDS011;56967;43.538;-5.646;2022-07-29T10:22:46;4.97;;;2.60;;
69703;SDS011;56967;43.538;-5.646;2022-07-29T10:25:12;2.95;;;1.88;;
69703;SDS011;56967;43.538;-5.646;2022-07-29T10:27:39;2.80;;;1.90;;
69703;SDS011;56967;43.538;-5.646;2022-07-29T10:30:04;3.72;;;2.03;;
69703;SDS011;56967;43.538;-5.646;2022-07-29T10:35:47;4.47;;;2.05;;
69703;SDS011;56967;43.538;-5.646;2022-07-29T10:41:13;4.10;;;2.20;;
69703;SDS011;56967;43.538;-5.646;2022-07-29T10:43:51;3.92;;;1.95;;
69703;SDS011;56967;43.538;-5.646;2022-07-29T10:46:22;5.00;;;2.47;;
69703;SDS011;56967;43.538;-5.646;2022-07-29T10:49:03;5.90;;;2.80;;
69703;SDS011;56967;43.538;-5.646;2022-07-29T10:54:15;2.88;;;2.20;;
69703;SDS011;56967;43.538;-5.646;2022-07-29T10:56:42;4.95;;;2.13;;
69703;SDS011;56967;43.538;-5.646;2022-07-29T11:01:49;5.18;;;2.42;;
69703;SDS011;56967;43.538;-5.646;2022-07-29T11:07:09;4.10;;;2.03;;
69703;SDS011;56967;43.538;-5.646;2022-07-29T11:09:36;4.07;;;2.50;;
69703;SDS011;56967;43.538;-5.646;2022-07-29T11:12:02;7.25;;;2.58;;
69703;SDS011;56967;43.538;-5.646;2022-07-29T11:17:21;6.10;;;2.53;;
69703;SDS011;56967;43.538;-5.646;2022-07-29T11:19:46;6.28;;;3.13;;
69703;SDS011;56967;43.538;-5.646;2022-07-29T11:22:31;3.63;;;2.03;;
69703;SDS011;56967;43.538;-5.646;2022-07-29T11:25:16;5.88;;;2.95;;
69703;SDS011;56967;43.538;-5.646;2022-07-29T11:27:43;2.97;;;2.20;;
69703;SDS011;56967;43.538;-5.646;2022-07-29T11:30:10;7.25;;;2.97;;
69703;SDS011;56967;43.538;-5.646;2022-07-29T11:32:40;5.18;;;2.78;;
69703;SDS011;56967;43.538;-5.646;2022-07-29T11:35:18;6.20;;;3.00;;
69703;SDS011;56967;43.538;-5.646;2022-07-29T11:37:47;5.65;;;2.80;;
69703;SDS011;56967;43.538;-5.646;2022-07-29T11:43:46;6.57;;;2.67;;
69703;SDS011;56967;43.538;-5.646;2022-07-29T11:49:12;6.05;;;2.70;;
69703;SDS011;56967;43.538;-5.646;2022-07-29T11:51:38;7.18;;;2.63;;
69703;SDS011;56967;43.538;-5.646;2022-07-29T11:54:05;5.35;;;2.95;;
69703;SDS011;56967;43.538;-5.646;2022-07-29T11:56:35;5.03;;;2.80;;
69703;SDS011;56967;43.538;-5.646;2022-07-29T11:59:06;4.85;;;2.90;;
69703;SDS011;56967;43.538;-5.646;2022-07-29T12:01:35;4.97;;;3.00;;
69703;SDS011;56967;43.538;-5.646;2022-07-29T12:04:04;4.20;;;2.70;;
69703;SDS011;56967;43.538;-5.646;2022-07-29T12:06:32;6.18;;;3.28;;
69703;SDS011;56967;43.538;-5.646;2022-07-29T12:08:58;4.78;;;2.88;;
69703;SDS011;56967;43.538;-5.646;2022-07-29T12:11:25;5.43;;;2.90;;
69703;SDS011;56967;43.538;-5.646;2022-07-29T12:13:51;3.00;;;2.60;;
69703;SDS011;56967;43.538;-5.646;2022-07-29T12:16:17;3.75;;;2.78;;
69703;SDS011;56967;43.538;-5.646;2022-07-29T12:18:48;6.85;;;2.97;;
69703;SDS011;56967;43.538;-5.646;2022-07-29T12:21:20;5.60;;;2.50;;
69703;SDS011;56967;43.538;-5.646;2022-07-29T12:23:51;6.35;;;2.60;;
69703;SDS011;56967;43.538;-5.646;2022-07-29T12:26:19;5.43;;;2.90;;
69703;SDS011;56967;43.538;-5.646;2022-07-29T12:28:44;7.90;;;3.30;;
69703;SDS011;56967;43.538;-5.646;2022-07-29T12:31:13;5.80;;;3.00;;
69703;SDS011;56967;43.538;-5.646;2022-07-29T12:33:40;5.13;;;3.30;;
69703;SDS011;56967;43.538;-5.646;2022-07-29T12:36:06;5.00;;;3.05;;
69703;SDS011;56967;43.538;-5.646;2022-07-29T12:38:33;4.13;;;2.90;;
69703;SDS011;56967;43.538;-5.646;2022-07-29T12:40:59;6.03;;;3.30;;
69703;SDS011;56967;43.538;-5.646;2022-07-29T12:43:26;4.43;;;2.72;;
69703;SDS011;56967;43.538;-5.646;2022-07-29T12:45:52;3.65;;;2.90;;
69703;SDS011;56967;43.538;-5.646;2022-07-29T12:48:35;6.30;;;3.25;;
69703;SDS011;56967;43.538;-5.646;2022-07-29T12:51:08;6.53;;;3.13;;
69703;SDS011;56967;43.538;-5.646;2022-07-29T12:53:38;5.78;;;2.92;;
69703;SDS011;56967;43.538;-5.646;2022-07-29T12:56:04;6.35;;;3.30;;
69703;SDS011;56967;43.538;-5.646;2022-07-29T13:01:00;7.00;;;2.90;;
69703;SDS011;56967;43.538;-5.646;2022-07-29T13:03:50;5.35;;;3.00;;
69703;SDS011;56967;43.538;-5.646;2022-07-29T13:06:40;6.97;;;3.00;;
69703;SDS011;56967;43.538;-5.646;2022-07-29T13:09:12;6.93;;;3.00;;
69703;SDS011;56967;43.538;-5.646;2022-07-29T13:14:29;5.03;;;3.08;;
69703;SDS011;56967;43.538;-5.646;2022-07-29T13:19:38;4.30;;;2.83;;
69703;SDS011;56967;43.538;-5.646;2022-07-29T13:22:07;5.55;;;3.13;;
69703;SDS011;56967;43.538;-5.646;2022-07-29T13:24:44;6.03;;;2.70;;
69703;SDS011;56967;43.538;-5.646;2022-07-29T13:27:18;3.92;;;2.70;;
69703;SDS011;56967;43.538;-5.646;2022-07-29T13:29:45;7.03;;;2.50;;
69703;SDS011;56967;43.538;-5.646;2022-07-29T13:32:11;5.18;;;2.97;;
69703;SDS011;56967;43.538;-5.646;2022-07-29T13:34:38;6.95;;;2.45;;
69703;SDS011;56967;43.538;-5.646;2022-07-29T13:37:04;4.68;;;2.70;;
69703;SDS011;56967;43.538;-5.646;2022-07-29T13:39:29;4.82;;;2.50;;
69703;SDS011;56967;43.538;-5.646;2022-07-29T13:41:55;5.38;;;2.45;;
69703;SDS011;56967;43.538;-5.646;2022-07-29T13:44:21;5.32;;;2.50;;
69703;SDS011;56967;43.538;-5.646;2022-07-29T13:46:46;4.53;;;2.22;;
69703;SDS011;56967;43.538;-5.646;2022-07-29T13:49:11;4.40;;;2.28;;
69703;SDS011;56967;43.538;-5.646;2022-07-29T13:51:37;4.18;;;2.60;;
69703;SDS011;56967;43.538;-5.646;2022-07-29T13:54:04;5.03;;;2.35;;
69703;SDS011;56967;43.538;-5.646;2022-07-29T13:56:29;6.15;;;2.90;;
69703;SDS011;56967;43.538;-5.646;2022-07-29T13:58:55;5.80;;;2.90;;
69703;SDS011;56967;43.538;-5.646;2022-07-29T14:01:22;4.47;;;2.72;;
69703;SDS011;56967;43.538;-5.646;2022-07-29T14:03:49;4.40;;;2.65;;
69703;SDS011;56967;43.538;-5.646;2022-07-29T14:06:15;10.10;;;3.15;;
69703;SDS011;56967;43.538;-5.646;2022-07-29T14:08:40;5.90;;;3.10;;
69703;SDS011;56967;43.538;-5.646;2022-07-29T14:11:06;5.13;;;3.40;;
69703;SDS011;56967;43.538;-5.646;2022-07-29T14:13:32;7.75;;;2.78;;
69703;SDS011;56967;43.538;-5.646;2022-07-29T14:15:57;3.92;;;1.95;;
69703;SDS011;56967;43.538;-5.646;2022-07-29T14:18:23;2.70;;;1.75;;
69703;SDS011;56967;43.538;-5.646;2022-07-29T14:20:49;5.50;;;2.30;;
69703;SDS011;56967;43.538;-5.646;2022-07-29T14:23:15;3.65;;;1.63;;
69703;SDS011;56967;43.538;-5.646;2022-07-29T14:25:41;3.65;;;2.10;;
69703;SDS011;56967;43.538;-5.646;2022-07-29T14:28:07;3.33;;;2.00;;
69703;SDS011;56967;43.538;-5.646;2022-07-29T14:30:33;2.88;;;1.60;;
69703;SDS011;56967;43.538;-5.646;2022-07-29T14:32:58;5.35;;;1.30;;
69703;SDS011;56967;43.538;-5.646;2022-07-29T14:35:24;2.58;;;1.50;;
69703;SDS011;56967;43.538;-5.646;2022-07-29T14:37:49;2.75;;;1.60;;
69703;SDS011;56967;43.538;-5.646;2022-07-29T14:40:15;3.92;;;1.50;;
69703;SDS011;56967;43.538;-5.646;2022-07-29T14:42:41;2.42;;;1.42;;
69703;SDS011;56967;43.538;-5.646;2022-07-29T14:45:07;6.60;;;1.58;;
69703;SDS011;56967;43.538;-5.646;2022-07-29T14:47:34;3.38;;;1.70;;
69703;SDS011;56967;43.538;-5.646;2022-07-29T14:49:59;4.95;;;1.90;;
69703;SDS011;56967;43.538;-5.646;2022-07-29T14:52:28;4.22;;;1.70;;
69703;SDS011;56967;43.538;-5.646;2022-07-29T14:54:53;3.22;;;1.55;;
69703;SDS011;56967;43.538;-5.646;2022-07-29T14:57:19;6.53;;;1.45;;
69703;SDS011;56967;43.538;-5.646;2022-07-29T14:59:45;5.38;;;1.60;;
69703;SDS011;56967;43.538;-5.646;2022-07-29T15:02:10;4.32;;;1.70;;
69703;SDS011;56967;43.538;-5.646;2022-07-29T15:04:35;2.67;;;1.70;;
69703;SDS011;56967;43.538;-5.646;2022-07-29T15:07:02;3.70;;;1.40;;
69703;SDS011;56967;43.538;-5.646;2022-07-29T15:09:28;8.57;;;1.63;;
69703;SDS011;56967;43.538;-5.646;2022-07-29T15:11:54;5.60;;;1.30;;
69703;SDS011;56967;43.538;-5.646;2022-07-29T15:14:19;1.90;;;1.38;;
69703;SDS011;56967;43.538;-5.646;2022-07-29T15:16:45;5.53;;;1.55;;
69703;SDS011;56967;43.538;-5.646;2022-07-29T15:19:10;3.10;;;1.40;;
69703;SDS011;56967;43.538;-5.646;2022-07-29T15:21:36;2.65;;;1.23;;
69703;SDS011;56967;43.538;-5.646;2022-07-29T15:24:02;5.85;;;1.50;;
69703;SDS011;56967;43.538;-5.646;2022-07-29T15:26:28;2.15;;;1.30;;
69703;SDS011;56967;43.538;-5.646;2022-07-29T15:28:53;4.20;;;1.50;;
69703;SDS011;56967;43.538;-5.646;2022-07-29T15:31:21;3.83;;;1.40;;
69703;SDS011;56967;43.538;-5.646;2022-07-29T15:33:46;5.35;;;1.30;;